createdAt,value
2019-04-14T00:01:39.115Z,35.70
2019-04-14T00:04:22.671Z,34.65
2019-04-14T00:06:50.461Z,36.73
2019-04-14T00:09:20.459Z,35.20
2019-04-14T00:11:48.176Z,33.58
2019-04-14T00:14:16.396Z,34.85
2019-04-14T00:16:44.593Z,35.48
2019-04-14T00:19:12.994Z,36.40
2019-04-14T00:21:41.108Z,35.13
2019-04-14T00:24:09.487Z,37.58
2019-04-14T00:26:37.921Z,35.60
2019-04-14T00:29:06.708Z,35.63
2019-04-14T00:31:34.910Z,34.03
2019-04-14T00:34:07.115Z,33.40
2019-04-14T00:36:41.644Z,35.28
2019-04-14T00:39:29.400Z,36.28
2019-04-14T00:42:06.584Z,35.48
2019-04-14T00:44:43.026Z,39.90
2019-04-14T00:47:31.046Z,38.40
2019-04-14T00:49:59.408Z,42.70
2019-04-14T00:52:27.621Z,42.83
2019-04-14T00:54:55.080Z,43.40
2019-04-14T00:57:22.476Z,44.95
2019-04-14T00:59:50.789Z,41.15
2019-04-14T01:02:18.922Z,42.70
2019-04-14T01:04:46.938Z,42.58
2019-04-14T01:07:15.158Z,43.10
2019-04-14T01:09:42.636Z,41.25
2019-04-14T01:12:10.292Z,39.25
2019-04-14T01:14:38.789Z,41.83
2019-04-14T01:17:06.937Z,38.00
2019-04-14T01:19:35.241Z,37.55
2019-04-14T01:22:03.209Z,38.90
2019-04-14T01:24:31.554Z,36.63
2019-04-14T01:26:59.526Z,38.73
2019-04-14T01:29:27.701Z,41.18
2019-04-14T01:31:55.799Z,37.90
2019-04-14T01:34:23.841Z,37.15
2019-04-14T01:36:51.832Z,37.98
2019-04-14T01:39:19.769Z,37.90
2019-04-14T01:41:47.802Z,36.03
2019-04-14T01:44:15.614Z,35.78
2019-04-14T01:46:43.461Z,37.95
2019-04-14T01:49:11.499Z,35.15
2019-04-14T01:52:08.163Z,35.83
2019-04-14T01:54:49.392Z,37.23
2019-04-14T01:57:35.016Z,38.13
2019-04-14T02:00:31.609Z,39.60
2019-04-14T02:02:59.726Z,36.25
2019-04-14T02:05:27.765Z,35.80
2019-04-14T02:07:55.880Z,35.60
2019-04-14T02:10:23.865Z,36.38
2019-04-14T02:12:51.799Z,34.08
2019-04-14T02:15:20.049Z,33.45
2019-04-14T02:17:48.145Z,36.93
2019-04-14T02:20:16.363Z,33.88
2019-04-14T02:22:44.095Z,33.73
2019-04-14T02:25:12.097Z,32.98
2019-04-14T02:27:40.672Z,35.85
2019-04-14T02:30:10.254Z,34.33
2019-04-14T02:33:07.396Z,34.35
2019-04-14T02:35:40.540Z,34.98
2019-04-14T02:38:13.705Z,35.45
2019-04-14T02:40:36.548Z,33.55
2019-04-14T02:45:35.326Z,33.63
2019-04-14T02:48:03.612Z,32.42
2019-04-14T02:50:27.212Z,32.50
2019-04-14T02:53:01.856Z,33.98
2019-04-14T02:55:25.300Z,35.13
2019-04-14T02:58:01.757Z,35.58
2019-04-14T03:00:41.200Z,32.67
2019-04-14T03:02:47.523Z,34.90
2019-04-14T03:05:32.176Z,36.65
2019-04-14T03:07:54.178Z,35.45
2019-04-14T03:10:27.658Z,35.52
2019-04-14T03:13:01.722Z,35.03
2019-04-14T03:18:20.405Z,36.83
2019-04-14T03:20:47.488Z,34.53
2019-04-14T03:23:53.499Z,36.25
2019-04-14T03:26:11.979Z,35.52
2019-04-14T03:36:44.144Z,41.23
2019-04-14T03:38:50.233Z,35.15
2019-04-14T03:41:17.160Z,35.48
2019-04-14T03:43:38.829Z,38.30
2019-04-14T03:46:17.446Z,38.78
2019-04-14T03:48:55.536Z,38.33
2019-04-14T03:51:26.247Z,38.30
2019-04-14T03:53:38.661Z,42.08
2019-04-14T03:56:20.050Z,40.43
2019-04-14T03:58:48.668Z,39.80
2019-04-14T04:01:17.180Z,40.50
2019-04-14T04:03:45.685Z,37.80
2019-04-14T04:06:13.945Z,41.37
2019-04-14T04:08:42.050Z,37.93
2019-04-14T04:11:10.468Z,41.35
2019-04-14T04:13:38.993Z,38.28
2019-04-14T04:16:15.898Z,40.03
2019-04-14T04:18:50.875Z,40.58
2019-04-14T04:21:29.803Z,39.98
2019-04-14T04:24:02.138Z,37.73
2019-04-14T04:26:36.578Z,38.42
2019-04-14T04:29:29.339Z,39.20
2019-04-14T04:32:16.460Z,39.15
2019-04-14T04:34:57.516Z,38.15
2019-04-14T04:37:30.139Z,39.45
2019-04-14T04:40:00.659Z,38.92
2019-04-14T04:42:28.694Z,40.33
2019-04-14T04:44:56.077Z,38.23
2019-04-14T04:47:23.640Z,40.35
2019-04-14T04:49:51.217Z,39.88
2019-04-14T04:52:19.134Z,41.18
2019-04-14T04:54:47.402Z,40.12
2019-04-14T04:57:15.547Z,41.68
2019-04-14T04:59:43.121Z,40.63
2019-04-14T05:02:11.265Z,44.90
2019-04-14T05:04:39.418Z,42.55
2019-04-14T05:07:07.777Z,48.17
2019-04-14T05:09:53.475Z,44.75
2019-04-14T05:12:39.270Z,45.58
2019-04-14T05:15:27.030Z,48.60
2019-04-14T05:17:54.400Z,45.35
2019-04-14T05:20:22.475Z,47.43
2019-04-14T05:22:50.807Z,47.38
2019-04-14T05:25:18.993Z,47.90
2019-04-14T05:27:47.355Z,48.87
2019-04-14T05:30:15.411Z,51.65
2019-04-14T05:32:43.454Z,50.03
2019-04-14T05:35:11.930Z,50.88
2019-04-14T05:37:40.087Z,47.67
2019-04-14T05:40:08.146Z,49.15
2019-04-14T05:42:36.248Z,47.83
2019-04-14T05:45:04.476Z,52.30
2019-04-14T05:47:32.611Z,52.17
2019-04-14T05:50:00.915Z,53.38
2019-04-14T05:52:29.488Z,48.87
2019-04-14T05:54:57.874Z,47.53
2019-04-14T05:57:26.236Z,49.67
2019-04-14T05:59:54.756Z,50.20
2019-04-14T06:02:22.318Z,48.08
2019-04-14T06:04:50.407Z,48.05
2019-04-14T06:07:17.636Z,45.98
2019-04-14T06:09:44.916Z,48.13
2019-04-14T06:12:12.126Z,47.13
2019-04-14T06:14:39.388Z,45.88
2019-04-14T06:17:06.580Z,46.18
2019-04-14T06:19:38.025Z,44.95
2019-04-14T06:22:02.952Z,45.92
2019-04-14T06:24:30.257Z,43.10
2019-04-14T06:26:57.909Z,44.53
2019-04-14T06:29:25.096Z,47.08
2019-04-14T06:32:14.753Z,47.75
2019-04-14T06:35:10.376Z,43.65
2019-04-14T06:38:06.093Z,43.80
2019-04-14T06:40:37.618Z,44.13
2019-04-14T06:43:04.956Z,42.03
2019-04-14T06:45:32.166Z,38.92
2019-04-14T06:47:59.363Z,36.15
2019-04-14T06:50:26.557Z,37.88
2019-04-14T06:52:53.761Z,34.65
2019-04-14T06:55:21.077Z,32.55
2019-04-14T06:57:48.293Z,33.63
2019-04-14T07:00:15.630Z,33.38
2019-04-14T07:02:42.834Z,35.52
2019-04-14T07:05:10.044Z,33.53
2019-04-14T07:07:37.360Z,33.65
2019-04-14T07:10:04.847Z,33.92
2019-04-14T07:12:32.157Z,40.20
2019-04-14T07:14:59.366Z,32.08
2019-04-14T07:17:26.693Z,32.93
2019-04-14T07:20:01.980Z,32.20
2019-04-14T07:22:23.234Z,31.80
2019-04-14T07:24:50.554Z,33.83
2019-04-14T07:27:18.382Z,35.20
2019-04-14T07:29:50.758Z,32.88
2019-04-14T07:32:46.111Z,29.42
2019-04-14T07:35:31.504Z,29.50
2019-04-14T07:38:16.052Z,29.20
2019-04-14T07:41:02.917Z,32.40
2019-04-14T07:43:37.232Z,30.23
2019-04-14T07:46:36.167Z,29.97
2019-04-14T07:49:12.188Z,31.02
2019-04-14T07:51:52.209Z,31.23
2019-04-14T07:54:25.457Z,29.53
2019-04-14T07:57:27.213Z,26.40
2019-04-14T08:00:16.744Z,26.83
2019-04-14T08:02:51.251Z,27.60
2019-04-14T08:05:22.199Z,28.03
2019-04-14T08:07:50.258Z,29.50
2019-04-14T08:10:17.465Z,26.83
2019-04-14T08:12:45.097Z,26.07
2019-04-14T08:15:12.527Z,24.70
2019-04-14T08:17:39.749Z,26.63
2019-04-14T08:20:07.234Z,26.97
2019-04-14T08:22:34.559Z,22.33
2019-04-14T08:25:01.871Z,22.40
2019-04-14T08:27:29.168Z,23.00
2019-04-14T08:29:56.513Z,23.47
2019-04-14T08:32:23.805Z,23.90
2019-04-14T08:34:51.003Z,23.20
2019-04-14T08:37:18.208Z,25.37
2019-04-14T08:39:45.444Z,20.87
2019-04-14T08:42:30.748Z,23.90
2019-04-14T08:45:01.321Z,21.30
2019-04-14T08:47:53.765Z,23.37
2019-04-14T08:50:41.285Z,24.43
2019-04-14T08:53:12.192Z,23.20
2019-04-14T08:56:01.772Z,22.90
2019-04-14T08:58:51.429Z,23.13
2019-04-14T09:01:36.423Z,20.53
2019-04-14T09:04:17.998Z,20.73
2019-04-14T09:07:10.436Z,21.23
2019-04-14T09:09:46.565Z,19.03
2019-04-14T09:12:20.009Z,19.07
2019-04-14T09:14:56.954Z,20.07
2019-04-14T09:17:16.502Z,19.33
2019-04-14T09:19:43.813Z,21.73
2019-04-14T09:22:11.137Z,17.13
2019-04-14T09:24:38.345Z,17.43
2019-04-14T09:27:05.659Z,18.30
2019-04-14T09:29:32.891Z,18.67
2019-04-14T09:32:00.441Z,19.17
2019-04-14T09:34:27.748Z,17.83
2019-04-14T09:36:55.162Z,17.83
2019-04-14T09:39:22.499Z,18.37
2019-04-14T09:41:49.787Z,17.43
2019-04-14T09:44:16.981Z,19.53
2019-04-14T09:46:44.293Z,20.97
2019-04-14T09:49:11.601Z,18.23
2019-04-14T09:51:38.939Z,17.80
2019-04-14T09:54:06.129Z,17.47
2019-04-14T09:56:33.433Z,16.87
2019-04-14T09:59:00.745Z,17.10
2019-04-14T10:01:28.177Z,16.57
2019-04-14T10:03:55.498Z,20.30
2019-04-14T10:06:22.801Z,19.17
2019-04-14T10:08:50.137Z,17.73
2019-04-14T10:11:17.409Z,18.17
2019-04-14T10:13:44.621Z,17.43
2019-04-14T10:16:11.821Z,16.00
2019-04-14T10:18:39.043Z,17.33
2019-04-14T10:21:16.817Z,16.23
2019-04-14T10:23:35.497Z,17.00
2019-04-14T10:26:02.876Z,15.03
2019-04-14T10:28:30.061Z,15.97
2019-04-14T10:30:57.841Z,16.10
2019-04-14T10:33:25.071Z,16.47
2019-04-14T10:35:52.579Z,15.93
2019-04-14T10:38:19.885Z,16.10
2019-04-14T10:40:47.105Z,14.63
2019-04-14T10:43:14.419Z,14.77
2019-04-14T10:45:41.745Z,14.60
2019-04-14T10:48:09.058Z,14.77
2019-04-14T10:50:36.275Z,22.20
2019-04-14T10:53:03.697Z,15.00
2019-04-14T10:55:31.009Z,18.00
2019-04-14T10:57:58.221Z,15.43
2019-04-14T11:00:25.564Z,16.07
2019-04-14T11:02:52.776Z,16.50
2019-04-14T11:05:20.073Z,14.77
2019-04-14T11:07:47.404Z,15.03
2019-04-14T11:10:14.829Z,13.93
2019-04-14T11:12:42.053Z,13.50
2019-04-14T11:15:09.785Z,13.90
2019-04-14T11:17:37.092Z,13.33
2019-04-14T11:20:05.063Z,13.37
2019-04-14T11:22:32.261Z,12.97
2019-04-14T11:24:59.594Z,13.80
2019-04-14T11:27:26.914Z,14.10
2019-04-14T11:29:54.207Z,13.03
2019-04-14T11:32:56.112Z,12.70
2019-04-14T11:35:27.097Z,11.70
2019-04-14T11:38:01.824Z,12.17
2019-04-14T11:40:34.670Z,12.00
2019-04-14T11:43:02.097Z,12.53
2019-04-14T11:45:29.469Z,13.17
2019-04-14T11:47:56.710Z,12.40
2019-04-14T11:50:24.023Z,13.97
2019-04-14T11:52:51.222Z,12.77
2019-04-14T11:55:18.444Z,13.13
2019-04-14T11:57:45.671Z,13.23
2019-04-14T12:00:33.132Z,13.60
2019-04-14T12:03:19.269Z,12.57
2019-04-14T12:06:04.714Z,12.17
2019-04-14T12:08:45.592Z,12.97
2019-04-14T12:11:13.040Z,12.80
2019-04-14T12:13:40.373Z,14.50
2019-04-14T12:16:07.684Z,12.90
2019-04-14T12:18:35.056Z,14.03
2019-04-14T12:21:02.262Z,15.37
2019-04-14T12:23:29.574Z,14.77
2019-04-14T12:26:05.263Z,13.63
2019-04-14T12:28:26.256Z,13.73
2019-04-14T12:30:53.542Z,13.63
2019-04-14T12:33:20.842Z,13.67
2019-04-14T12:35:48.038Z,14.47
2019-04-14T12:38:15.346Z,14.87
2019-04-14T12:40:42.575Z,14.10
2019-04-14T12:43:28.284Z,15.60
2019-04-14T12:46:13.533Z,12.77
2019-04-14T12:48:54.771Z,12.63
2019-04-14T12:51:50.974Z,12.03
2019-04-14T12:54:18.283Z,12.17
2019-04-14T12:56:45.588Z,14.33
2019-04-14T12:59:18.690Z,11.67
2019-04-14T13:02:06.218Z,11.80
2019-04-14T13:04:33.536Z,11.50
2019-04-14T13:07:00.835Z,11.70
2019-04-14T13:09:28.200Z,11.53
2019-04-14T13:11:55.533Z,14.03
2019-04-14T13:14:22.826Z,11.00
2019-04-14T13:16:50.141Z,11.80
2019-04-14T13:19:17.462Z,11.80
2019-04-14T13:21:44.683Z,12.43
2019-04-14T13:24:12.232Z,12.37
2019-04-14T13:26:39.537Z,13.07
2019-04-14T13:29:06.829Z,11.73
2019-04-14T13:31:34.132Z,14.73
2019-04-14T13:34:01.420Z,11.87
2019-04-14T13:36:28.677Z,12.07
2019-04-14T13:38:55.968Z,11.47
2019-04-14T13:41:23.266Z,12.57
2019-04-14T13:43:50.464Z,11.77
2019-04-14T13:46:17.767Z,12.20
2019-04-14T13:48:45.084Z,14.13
2019-04-14T13:51:12.399Z,12.83
2019-04-14T13:53:39.633Z,14.33
2019-04-14T13:56:06.961Z,13.77
2019-04-14T13:58:37.095Z,15.37
2019-04-14T14:01:03.621Z,13.93
2019-04-14T14:03:30.835Z,12.87
2019-04-14T14:05:58.192Z,13.90
2019-04-14T14:08:25.493Z,15.77
2019-04-14T14:10:56.329Z,14.10
2019-04-14T14:13:43.145Z,17.10
2019-04-14T14:16:30.488Z,13.43
2019-04-14T14:19:08.715Z,13.13
2019-04-14T14:21:49.751Z,14.03
2019-04-14T14:24:45.364Z,13.67
2019-04-14T14:27:12.723Z,18.50
2019-04-14T14:29:40.013Z,14.73
2019-04-14T14:32:14.080Z,13.50
2019-04-14T14:34:41.378Z,16.40
2019-04-14T14:37:08.691Z,13.43
2019-04-14T14:39:36.092Z,13.23
2019-04-14T14:42:03.408Z,13.57
2019-04-14T14:44:38.412Z,16.40
2019-04-14T14:47:14.306Z,13.17
2019-04-14T14:49:59.380Z,15.47
2019-04-14T14:52:26.596Z,14.37
2019-04-14T14:54:53.890Z,12.67
2019-04-14T14:57:21.216Z,12.67
2019-04-14T14:59:48.544Z,13.23
2019-04-14T15:02:15.866Z,15.80
2019-04-14T15:04:43.263Z,14.20
2019-04-14T15:07:10.577Z,13.53
2019-04-14T15:09:37.791Z,16.13
2019-04-14T15:12:05.004Z,14.50
2019-04-14T15:14:32.282Z,16.30
2019-04-14T15:16:59.687Z,13.50
2019-04-14T15:19:26.885Z,14.07
2019-04-14T15:21:54.146Z,14.47
2019-04-14T15:24:21.460Z,13.63
2019-04-14T15:26:48.758Z,14.00
2019-04-14T15:29:16.160Z,16.27
2019-04-14T15:31:43.534Z,14.50
2019-04-14T15:34:10.908Z,15.13
2019-04-14T15:36:38.112Z,17.27
2019-04-14T15:39:06.753Z,13.57
2019-04-14T15:41:34.074Z,15.93
2019-04-14T15:44:01.397Z,15.17
2019-04-14T15:46:28.609Z,18.57
2019-04-14T15:48:55.897Z,14.70
2019-04-14T15:51:23.188Z,15.20
2019-04-14T15:53:50.481Z,14.10
2019-04-14T15:56:29.765Z,14.23
2019-04-14T15:59:05.112Z,16.07
2019-04-14T16:01:50.218Z,15.17
2019-04-14T16:04:37.051Z,17.30
2019-04-14T16:07:32.721Z,14.17
2019-04-14T16:10:11.221Z,13.63
2019-04-14T16:12:58.062Z,16.17
2019-04-14T16:15:43.668Z,15.50
2019-04-14T16:18:31.759Z,13.87
2019-04-14T16:20:59.088Z,13.63
2019-04-14T16:23:26.401Z,15.20
2019-04-14T16:26:16.077Z,12.93
2019-04-14T16:29:02.977Z,13.80
2019-04-14T16:31:44.101Z,12.70
2019-04-14T16:34:14.706Z,13.43
2019-04-14T16:36:43.077Z,16.67
2019-04-14T16:39:10.325Z,15.03
2019-04-14T16:41:37.635Z,15.23
2019-04-14T16:44:04.913Z,17.23
2019-04-14T16:46:32.210Z,14.37
2019-04-14T16:48:59.431Z,14.70
2019-04-14T16:51:31.093Z,14.50
2019-04-14T16:54:03.223Z,17.30
2019-04-14T16:56:48.701Z,15.20
2019-04-14T16:59:16.377Z,17.87
2019-04-14T17:01:45.757Z,14.23
2019-04-14T17:04:13.060Z,15.90
2019-04-14T17:06:40.396Z,15.00
2019-04-14T17:09:07.940Z,17.80
2019-04-14T17:11:35.289Z,14.90
2019-04-14T17:14:06.047Z,14.93
2019-04-14T17:16:43.665Z,15.70
2019-04-14T17:19:15.916Z,14.60
2019-04-14T17:21:50.843Z,15.33
2019-04-14T17:24:40.758Z,14.13
2019-04-14T17:27:28.006Z,17.23
2019-04-14T17:30:05.410Z,18.07
2019-04-14T17:32:55.039Z,18.03
2019-04-14T17:35:56.779Z,17.20
2019-04-14T17:38:35.765Z,15.83
2019-04-14T17:41:09.569Z,17.23
2019-04-14T17:43:47.577Z,17.10
2019-04-14T17:46:34.718Z,16.37
2019-04-14T17:49:25.189Z,18.23
2019-04-14T17:52:12.121Z,15.00
2019-04-14T17:54:59.004Z,14.80
2019-04-14T17:57:57.973Z,14.10
2019-04-14T18:00:30.965Z,17.43
2019-04-14T18:03:01.607Z,13.97
2019-04-14T18:05:42.085Z,15.53
2019-04-14T18:08:28.934Z,14.97
2019-04-14T18:11:08.001Z,11.67
2019-04-14T18:13:54.837Z,13.80
2019-04-14T18:16:32.851Z,15.97
2019-04-14T18:19:13.573Z,12.40
2019-04-14T18:21:44.251Z,14.00
2019-04-14T18:24:11.646Z,13.20
2019-04-14T18:26:38.820Z,15.00
2019-04-14T18:29:26.937Z,14.63
2019-04-14T18:32:12.342Z,18.80
2019-04-14T18:34:45.150Z,18.57
2019-04-14T18:37:27.180Z,14.83
2019-04-14T18:40:16.884Z,19.30
2019-04-14T18:42:58.575Z,15.03
2019-04-14T18:45:48.648Z,14.40
2019-04-14T18:48:35.548Z,15.70
2019-04-14T18:51:22.374Z,16.90
2019-04-14T18:54:08.158Z,15.70
2019-04-14T18:56:54.993Z,15.87
2019-04-14T18:59:40.320Z,15.90
2019-04-14T19:02:08.896Z,17.23
2019-04-14T19:04:36.119Z,16.30
2019-04-14T19:07:03.454Z,15.60
2019-04-14T19:09:30.780Z,16.67
2019-04-14T19:12:23.144Z,15.67
2019-04-14T19:14:53.613Z,16.40
2019-04-14T19:17:40.449Z,17.03
2019-04-14T19:20:07.768Z,16.57
2019-04-14T19:22:34.992Z,16.00
2019-04-14T19:25:08.376Z,17.77
2019-04-14T19:27:31.643Z,18.17
2019-04-14T19:29:58.956Z,18.17
2019-04-14T19:32:26.265Z,17.50
2019-04-14T19:34:53.600Z,15.17
2019-04-14T19:37:21.070Z,16.60
2019-04-14T19:39:48.393Z,15.97
2019-04-14T19:42:15.803Z,16.37
2019-04-14T19:44:43.106Z,17.23
2019-04-14T19:47:10.320Z,15.23
2019-04-14T19:49:37.632Z,17.73
2019-04-14T19:52:04.992Z,16.97
2019-04-14T19:54:32.312Z,15.30
2019-04-14T19:56:59.651Z,17.10
2019-04-14T19:59:27.020Z,14.30
2019-04-14T20:01:54.362Z,14.60
2019-04-14T20:04:21.698Z,16.10
2019-04-14T20:06:49.052Z,15.80
2019-04-14T20:09:16.373Z,14.27
2019-04-14T20:11:43.686Z,15.77
2019-04-14T20:14:11.014Z,14.13
2019-04-14T20:16:45.600Z,14.63
2019-04-14T20:19:30.584Z,12.80
2019-04-14T20:22:16.150Z,12.70
2019-04-14T20:25:11.894Z,13.27
2019-04-14T20:27:44.618Z,16.50
2019-04-14T20:30:16.648Z,12.17
2019-04-14T20:32:44.160Z,14.57
2019-04-14T20:35:12.245Z,11.93
2019-04-14T20:37:39.643Z,15.33
2019-04-14T20:40:07.685Z,14.00
2019-04-14T20:42:36.593Z,14.13
2019-04-14T20:45:05.639Z,13.73
2019-04-14T20:47:32.972Z,16.07
2019-04-14T20:50:00.386Z,14.03
2019-04-14T20:52:27.687Z,13.47
2019-04-14T20:54:55.019Z,15.37
2019-04-14T20:57:22.251Z,13.90
2019-04-14T20:59:49.597Z,15.60
2019-04-14T21:02:36.553Z,13.23
2019-04-14T21:05:22.297Z,16.90
2019-04-14T21:08:21.831Z,14.63
2019-04-14T21:11:02.664Z,14.67
2019-04-14T21:13:58.685Z,14.20
2019-04-14T21:16:36.012Z,13.73
2019-04-14T21:19:08.696Z,13.77
2019-04-14T21:21:49.504Z,17.07
2019-04-14T21:24:48.233Z,15.17
2019-04-14T21:27:35.851Z,15.10
2019-04-14T21:30:36.136Z,17.90
2019-04-14T21:33:18.466Z,14.37
2019-04-14T21:35:52.948Z,15.40
2019-04-14T21:38:38.728Z,15.48
2019-04-14T21:41:10.982Z,15.47
2019-04-14T21:43:39.386Z,19.20
2019-04-14T21:46:06.637Z,17.23
2019-04-14T21:48:33.975Z,20.03
2019-04-14T21:51:01.197Z,14.90
2019-04-14T21:53:28.580Z,17.00
2019-04-14T21:55:56.016Z,17.20
2019-04-14T21:58:48.622Z,18.13
2019-04-14T22:01:50.636Z,16.45
2019-04-14T22:04:52.704Z,17.75
2019-04-14T22:07:42.121Z,15.15
2019-04-14T22:10:18.143Z,16.95
2019-04-14T22:12:47.096Z,13.85
2019-04-14T22:15:14.342Z,18.98
2019-04-14T22:17:41.690Z,17.07
2019-04-14T22:20:09.001Z,16.40
2019-04-14T22:22:36.234Z,16.00
2019-04-14T22:25:03.910Z,14.35
2019-04-14T22:27:31.232Z,18.32
2019-04-14T22:29:58.542Z,15.58
2019-04-14T22:32:25.869Z,14.00
2019-04-14T22:34:53.180Z,12.40
2019-04-14T22:37:20.566Z,13.80
2019-04-14T22:39:47.858Z,12.58
2019-04-14T22:42:15.205Z,15.70
2019-04-14T22:44:42.526Z,14.60
2019-04-14T22:47:09.767Z,16.62
2019-04-14T22:49:37.083Z,14.35
2019-04-14T22:52:04.821Z,13.80
2019-04-14T22:54:32.186Z,16.07
2019-04-14T22:56:59.422Z,13.08
2019-04-14T22:59:26.760Z,12.07
2019-04-14T23:02:01.575Z,12.68
2019-04-14T23:04:44.316Z,13.68
2019-04-14T23:07:42.870Z,11.95
2019-04-14T23:10:25.615Z,13.35
2019-04-14T23:13:03.699Z,11.30
2019-04-14T23:15:50.651Z,10.70
2019-04-14T23:18:28.566Z,11.33
2019-04-14T23:21:04.500Z,12.70
2019-04-14T23:23:38.126Z,11.70
2019-04-14T23:26:05.440Z,13.55
2019-04-14T23:28:32.772Z,12.33
2019-04-14T23:31:01.754Z,12.20
2019-04-14T23:33:29.262Z,11.37
2019-04-14T23:35:56.582Z,11.83
2019-04-14T23:38:23.884Z,11.53
2019-04-14T23:40:51.260Z,11.48
2019-04-14T23:43:18.489Z,11.50
2019-04-14T23:45:45.902Z,10.88
2019-04-14T23:48:13.260Z,11.48
2019-04-14T23:50:40.641Z,11.22
2019-04-14T23:53:07.962Z,11.97
2019-04-14T23:55:35.303Z,12.13
2019-04-14T23:58:02.626Z,12.78
